createdAt,value
2022-10-09T00:01:26.526Z,100563.59
2022-10-09T00:03:56.580Z,100562.03
2022-10-09T00:06:29.275Z,100570.28
2022-10-09T00:08:56.864Z,100570.38
2022-10-09T00:11:26.803Z,100566.72
2022-10-09T00:13:57.339Z,100564.59
2022-10-09T00:16:28.366Z,100566.37
2022-10-09T00:18:56.613Z,100569.19
2022-10-09T00:21:34.453Z,100562.69
2022-10-09T00:24:04.084Z,100564.34
2022-10-09T00:26:31.719Z,100572.13
2022-10-09T00:28:59.513Z,100566.22
2022-10-09T00:31:27.080Z,100559.37
2022-10-09T00:33:54.563Z,100560.56
2022-10-09T00:36:24.369Z,100553.47
2022-10-09T00:38:52.257Z,100557.50
2022-10-09T00:41:26.090Z,100550.75
2022-10-09T00:43:55.466Z,100548.28
2022-10-09T00:46:50.738Z,100540.97
2022-10-09T00:49:33.570Z,100540.03
2022-10-09T00:52:04.401Z,100541.94
2022-10-09T00:54:34.715Z,100545.47
2022-10-09T00:57:02.731Z,100536.50
2022-10-09T00:59:31.228Z,100534.28
2022-10-09T01:01:59.096Z,100525.06
2022-10-09T01:04:26.670Z,100530.47
2022-10-09T01:07:05.305Z,100525.06
2022-10-09T01:09:50.753Z,100525.28
2022-10-09T01:12:32.314Z,100519.28
2022-10-09T01:15:17.788Z,100514.06
2022-10-09T01:17:54.718Z,100508.53
2022-10-09T01:20:50.193Z,100516.09
2022-10-09T01:23:29.655Z,100518.47
2022-10-09T01:26:17.704Z,100516.22
2022-10-09T01:28:52.310Z,100532.19
2022-10-09T01:31:21.883Z,100518.03
2022-10-09T01:33:49.805Z,100527.22
2022-10-09T01:36:18.608Z,100523.09
2022-10-09T01:38:47.092Z,100516.03
2022-10-09T01:41:14.562Z,100515.31
2022-10-09T01:43:42.493Z,100518.72
2022-10-09T01:46:20.704Z,100518.44
2022-10-09T01:48:58.806Z,100525.16
2022-10-09T01:51:31.639Z,100528.94
2022-10-09T01:54:03.177Z,100528.69
2022-10-09T01:56:34.227Z,100528.13
2022-10-09T01:59:09.523Z,100531.91
2022-10-09T02:01:42.298Z,100532.47
2022-10-09T02:04:13.294Z,100534.38
2022-10-09T02:06:43.942Z,100523.16
2022-10-09T02:09:18.086Z,100529.91
2022-10-09T02:11:52.229Z,100533.94
2022-10-09T02:14:19.878Z,100528.97
2022-10-09T02:16:53.645Z,100538.19
2022-10-09T02:19:29.453Z,100538.78
2022-10-09T02:22:00.707Z,100534.66
2022-10-09T02:24:29.205Z,100539.00
2022-10-09T02:26:58.917Z,100537.12
2022-10-09T02:29:26.798Z,100543.62
2022-10-09T02:31:54.342Z,100540.19
2022-10-09T02:34:22.234Z,100547.03
2022-10-09T02:36:52.115Z,100551.59
2022-10-09T02:39:19.631Z,100548.78
2022-10-09T02:41:47.142Z,100559.63
2022-10-09T02:44:14.606Z,100562.00
2022-10-09T02:46:42.174Z,100566.47
2022-10-09T02:49:09.691Z,100564.47
2022-10-09T02:51:37.172Z,100560.34
2022-10-09T02:54:05.377Z,100563.78
2022-10-09T02:56:38.750Z,100570.28
2022-10-09T02:59:06.726Z,100566.41
2022-10-09T03:01:34.647Z,100571.59
2022-10-09T03:04:02.168Z,100575.94
2022-10-09T03:06:30.293Z,100577.84
2022-10-09T03:09:03.900Z,100572.19
2022-10-09T03:11:31.393Z,100578.19
2022-10-09T03:13:58.922Z,100575.81
2022-10-09T03:16:27.643Z,100577.22
2022-10-09T03:18:55.642Z,100570.16
2022-10-09T03:21:26.381Z,100570.50
2022-10-09T03:23:56.616Z,100573.94
2022-10-09T03:26:26.133Z,100581.22
2022-10-09T03:28:55.096Z,100585.38
2022-10-09T03:34:13.634Z,100586.59
2022-10-09T03:36:42.251Z,100583.91
2022-10-09T03:39:12.281Z,100582.09
2022-10-09T03:41:39.777Z,100586.66
2022-10-09T03:44:07.333Z,100591.59
2022-10-09T03:46:39.756Z,100582.41
2022-10-09T03:49:08.041Z,100578.94
2022-10-09T03:51:37.767Z,100584.81
2022-10-09T03:54:05.504Z,100581.62
2022-10-09T03:56:33.011Z,100586.34
2022-10-09T03:59:00.533Z,100592.50
2022-10-09T04:01:30.499Z,100591.28
2022-10-09T04:03:58.070Z,100599.72
2022-10-09T04:06:25.546Z,100590.19
2022-10-09T04:08:53.105Z,100587.00
2022-10-09T04:11:21.185Z,100592.84
2022-10-09T04:13:48.655Z,100588.53
2022-10-09T04:16:16.826Z,100597.38
2022-10-09T04:18:47.728Z,100590.28
2022-10-09T04:21:15.431Z,100580.19
2022-10-09T04:23:42.975Z,100581.06
2022-10-09T04:26:12.882Z,100582.41
2022-10-09T04:28:40.903Z,100585.41
2022-10-09T04:31:11.061Z,100595.44
2022-10-09T04:33:38.614Z,100601.22
2022-10-09T04:36:06.271Z,100605.31
2022-10-09T04:38:33.838Z,100604.25
2022-10-09T04:41:06.530Z,100611.69
2022-10-09T04:43:37.161Z,100614.41
2022-10-09T04:46:08.002Z,100612.75
2022-10-09T04:48:40.208Z,100612.69
2022-10-09T04:51:08.245Z,100627.37
2022-10-09T04:53:36.803Z,100633.66
2022-10-09T04:56:07.372Z,100641.28
2022-10-09T04:58:36.537Z,100650.59
2022-10-09T05:01:14.109Z,100652.00
2022-10-09T05:03:41.950Z,100657.56
2022-10-09T05:06:14.018Z,100659.78
2022-10-09T05:08:42.441Z,100650.94
2022-10-09T05:11:17.707Z,100646.03
2022-10-09T05:13:48.255Z,100638.75
2022-10-09T05:16:21.086Z,100642.00
2022-10-09T05:18:51.606Z,100637.63
2022-10-09T05:21:19.764Z,100636.31
2022-10-09T05:23:47.969Z,100638.75
2022-10-09T05:26:20.651Z,100636.63
2022-10-09T05:28:49.005Z,100631.69
2022-10-09T05:31:28.385Z,100648.59
2022-10-09T05:33:59.173Z,100657.87
2022-10-09T05:36:26.762Z,100656.16
2022-10-09T05:38:54.514Z,100659.44
2022-10-09T05:41:22.017Z,100655.06
2022-10-09T05:43:50.911Z,100672.53
2022-10-09T05:46:21.690Z,100671.44
2022-10-09T05:49:01.234Z,100679.12
2022-10-09T05:51:31.251Z,100678.72
2022-10-09T05:54:01.855Z,100674.87
2022-10-09T05:56:34.793Z,100684.97
2022-10-09T05:59:05.587Z,100687.16
2022-10-09T06:01:35.946Z,100686.31
2022-10-09T06:04:06.301Z,100691.78
2022-10-09T06:06:37.270Z,100697.81
2022-10-09T06:09:05.188Z,100692.91
2022-10-09T06:11:37.284Z,100689.72
2022-10-09T06:14:06.611Z,100693.56
2022-10-09T06:16:39.633Z,100704.53
2022-10-09T06:19:09.176Z,100709.16
2022-10-09T06:21:41.865Z,100714.59
2022-10-09T06:24:13.070Z,100718.69
2022-10-09T06:26:40.565Z,100724.41
2022-10-09T06:29:10.232Z,100720.31
2022-10-09T06:31:37.742Z,100728.59
2022-10-09T06:34:05.771Z,100732.75
2022-10-09T06:36:36.124Z,100737.53
2022-10-09T06:39:06.830Z,100735.97
2022-10-09T06:41:35.053Z,100735.97
2022-10-09T06:44:05.787Z,100743.69
2022-10-09T06:46:39.314Z,100745.91
2022-10-09T06:49:10.254Z,100746.53
2022-10-09T06:51:39.122Z,100753.91
2022-10-09T06:54:13.105Z,100755.16
2022-10-09T06:56:40.619Z,100754.72
2022-10-09T06:59:09.349Z,100753.41
2022-10-09T07:01:37.028Z,100755.69
2022-10-09T07:04:12.166Z,100760.06
2022-10-09T07:06:43.068Z,100759.44
2022-10-09T07:09:13.916Z,100760.19
2022-10-09T07:11:44.513Z,100770.66
2022-10-09T07:14:13.256Z,100774.66
2022-10-09T07:16:43.544Z,100775.91
2022-10-09T07:19:12.417Z,100777.28
2022-10-09T07:21:43.154Z,100776.50
2022-10-09T07:24:11.184Z,100783.59
2022-10-09T07:26:41.810Z,100772.28
2022-10-09T07:29:11.462Z,100777.38
2022-10-09T07:31:39.472Z,100782.09
2022-10-09T07:34:07.221Z,100775.09
2022-10-09T07:36:34.810Z,100773.78
2022-10-09T07:39:02.637Z,100778.63
2022-10-09T07:41:30.800Z,100779.06
2022-10-09T07:43:59.357Z,100784.97
2022-10-09T07:46:33.001Z,100785.31
2022-10-09T07:49:04.544Z,100788.88
2022-10-09T07:51:33.178Z,100779.22
2022-10-09T07:54:03.711Z,100787.62
2022-10-09T07:56:32.636Z,100774.84
2022-10-09T07:59:03.028Z,100781.53
2022-10-09T08:01:31.973Z,100787.44
2022-10-09T08:04:00.210Z,100784.03
2022-10-09T08:06:28.926Z,100778.59
2022-10-09T08:08:59.292Z,100792.63
2022-10-09T08:11:28.062Z,100786.81
2022-10-09T08:13:56.185Z,100795.16
2022-10-09T08:16:25.487Z,100791.00
2022-10-09T08:19:00.516Z,100804.19
2022-10-09T08:21:29.091Z,100795.22
2022-10-09T08:23:58.491Z,100805.94
2022-10-09T08:26:29.324Z,100795.09
2022-10-09T08:29:05.421Z,100798.31
2022-10-09T08:31:33.073Z,100805.53
2022-10-09T08:34:04.913Z,100809.09
2022-10-09T08:36:33.283Z,100808.72
2022-10-09T08:39:00.831Z,100815.72
2022-10-09T08:41:34.446Z,100820.34
2022-10-09T08:44:12.050Z,100826.06
2022-10-09T08:46:54.532Z,100824.81
2022-10-09T08:49:28.593Z,100823.72
2022-10-09T08:51:59.095Z,100827.34
2022-10-09T08:54:35.347Z,100828.84
2022-10-09T08:57:12.832Z,100833.37
2022-10-09T08:59:40.479Z,100842.59
2022-10-09T09:02:20.241Z,100839.19
2022-10-09T09:05:20.614Z,100845.38
2022-10-09T09:08:02.302Z,100837.69
2022-10-09T09:10:43.678Z,100843.78
2022-10-09T09:13:52.677Z,100850.03
2022-10-09T09:16:29.909Z,100851.41
2022-10-09T09:19:25.395Z,100847.59
2022-10-09T09:21:57.257Z,100852.34
2022-10-09T09:24:58.366Z,100852.94
2022-10-09T09:27:33.763Z,100855.38
2022-10-09T09:30:13.152Z,100861.94
2022-10-09T09:32:49.263Z,100867.00
2022-10-09T09:35:26.601Z,100868.53
2022-10-09T09:37:54.658Z,100868.53
2022-10-09T09:40:45.850Z,100864.72
2022-10-09T09:43:20.690Z,100873.03
2022-10-09T09:45:54.459Z,100857.47
2022-10-09T09:48:35.654Z,100868.44
2022-10-09T09:51:27.363Z,100869.69
2022-10-09T09:54:06.228Z,100866.09
2022-10-09T09:57:07.050Z,100863.66
2022-10-09T09:59:39.933Z,100860.22
2022-10-09T10:02:07.442Z,100865.59
2022-10-09T10:04:36.924Z,100868.66
2022-10-09T10:07:06.968Z,100858.75
2022-10-09T10:09:36.623Z,100869.47
2022-10-09T10:12:09.163Z,100864.09
2022-10-09T10:14:36.778Z,100877.13
2022-10-09T10:17:04.527Z,100872.13
2022-10-09T10:19:35.495Z,100869.50
2022-10-09T10:22:08.582Z,100871.47
2022-10-09T10:24:45.496Z,100871.34
2022-10-09T10:27:41.725Z,100870.44
2022-10-09T10:30:16.991Z,100874.72
2022-10-09T10:32:50.533Z,100868.78
2022-10-09T10:35:39.729Z,100863.63
2022-10-09T10:38:07.233Z,100863.38
2022-10-09T10:40:38.816Z,100865.72
2022-10-09T10:43:21.635Z,100866.81
2022-10-09T10:45:59.940Z,100871.59
2022-10-09T10:48:30.958Z,100863.63
2022-10-09T10:51:07.516Z,100861.34
2022-10-09T10:53:45.538Z,100868.22
2022-10-09T10:56:31.093Z,100873.91
2022-10-09T10:59:07.798Z,100868.97
2022-10-09T11:01:54.086Z,100863.94
2022-10-09T11:04:33.504Z,100859.06
2022-10-09T11:07:17.783Z,100861.75
2022-10-09T11:09:48.138Z,100866.47
2022-10-09T11:12:48.179Z,100856.81
2022-10-09T11:15:37.454Z,100855.69
2022-10-09T11:18:29.653Z,100853.75
2022-10-09T11:21:09.383Z,100852.31
2022-10-09T11:23:42.545Z,100849.34
2022-10-09T11:26:31.751Z,100853.66
2022-10-09T11:29:06.519Z,100851.53
2022-10-09T11:31:41.637Z,100847.81
2022-10-09T11:34:21.249Z,100840.56
2022-10-09T11:36:49.137Z,100839.44
2022-10-09T11:39:23.797Z,100837.84
2022-10-09T11:41:53.688Z,100844.66
2022-10-09T11:44:42.784Z,100852.00
2022-10-09T11:47:28.589Z,100847.56
2022-10-09T11:50:14.814Z,100833.81
2022-10-09T11:52:56.176Z,100835.69
2022-10-09T11:55:30.251Z,100834.16
2022-10-09T11:58:14.882Z,100832.78
2022-10-09T12:00:43.600Z,100840.47
2022-10-09T12:03:33.181Z,100842.91
2022-10-09T12:06:18.295Z,100837.66
2022-10-09T12:08:56.388Z,100831.91
2022-10-09T12:11:24.825Z,100831.56
2022-10-09T12:14:01.096Z,100823.59
2022-10-09T12:16:41.939Z,100823.50
2022-10-09T12:19:24.806Z,100819.94
2022-10-09T12:21:58.021Z,100816.72
2022-10-09T12:24:30.274Z,100822.78
2022-10-09T12:27:04.261Z,100817.63
2022-10-09T12:29:44.030Z,100822.44
2022-10-09T12:32:32.506Z,100824.09
2022-10-09T12:35:01.887Z,100816.75
2022-10-09T12:37:36.689Z,100819.78
2022-10-09T12:40:10.541Z,100807.34
2022-10-09T12:42:38.194Z,100809.91
2022-10-09T12:45:08.556Z,100814.56
2022-10-09T12:47:36.707Z,100813.53
2022-10-09T12:50:13.269Z,100804.25
2022-10-09T12:52:53.913Z,100807.13
2022-10-09T12:55:41.690Z,100808.44
2022-10-09T12:58:22.225Z,100800.94
2022-10-09T13:00:55.731Z,100804.81
2022-10-09T13:03:27.175Z,100796.72
2022-10-09T13:05:57.476Z,100794.22
2022-10-09T13:08:31.086Z,100783.69
2022-10-09T13:11:10.751Z,100783.84
2022-10-09T13:13:39.384Z,100786.91
2022-10-09T13:16:11.997Z,100780.53
2022-10-09T13:18:39.521Z,100783.47
2022-10-09T13:21:20.195Z,100778.75
2022-10-09T13:23:48.538Z,100779.47
2022-10-09T13:26:34.247Z,100780.69
2022-10-09T13:29:02.714Z,100782.44
2022-10-09T13:31:33.761Z,100770.22
2022-10-09T13:34:13.346Z,100775.81
2022-10-09T13:36:41.104Z,100767.47
2022-10-09T13:39:14.715Z,100775.25
2022-10-09T13:41:44.696Z,100780.16
2022-10-09T13:44:12.227Z,100780.59
2022-10-09T13:46:42.221Z,100772.22
2022-10-09T13:49:12.238Z,100777.84
2022-10-09T13:51:39.986Z,100775.56
2022-10-09T13:54:09.940Z,100767.31
2022-10-09T13:56:37.587Z,100770.38
2022-10-09T13:59:05.136Z,100771.09
2022-10-09T14:01:32.776Z,100757.88
2022-10-09T14:04:00.738Z,100761.31
2022-10-09T14:06:31.107Z,100761.91
2022-10-09T14:08:58.606Z,100762.72
2022-10-09T14:11:28.557Z,100761.59
2022-10-09T14:13:58.371Z,100759.19
2022-10-09T14:16:27.740Z,100758.91
2022-10-09T14:19:04.460Z,100762.91
2022-10-09T14:21:32.350Z,100765.91
2022-10-09T14:24:02.194Z,100764.88
2022-10-09T14:26:30.966Z,100764.19
2022-10-09T14:29:01.134Z,100772.34
2022-10-09T14:31:28.873Z,100763.94
2022-10-09T14:33:58.739Z,100763.69
2022-10-09T14:36:26.784Z,100765.13
2022-10-09T14:38:54.418Z,100763.84
2022-10-09T14:41:22.374Z,100754.06
2022-10-09T14:43:56.658Z,100764.00
2022-10-09T14:46:25.096Z,100759.41
2022-10-09T14:48:55.371Z,100755.63
2022-10-09T14:51:25.898Z,100762.59
2022-10-09T14:53:57.137Z,100758.56
2022-10-09T14:56:25.622Z,100764.94
2022-10-09T14:58:53.570Z,100767.44
2022-10-09T15:01:24.476Z,100767.16
2022-10-09T15:03:52.090Z,100756.97
2022-10-09T15:06:23.944Z,100767.44
2022-10-09T15:08:55.259Z,100763.91
2022-10-09T15:11:25.006Z,100772.50
2022-10-09T15:13:52.520Z,100769.53
2022-10-09T15:16:20.797Z,100762.47
2022-10-09T15:18:53.003Z,100772.97
2022-10-09T15:21:26.300Z,100773.59
2022-10-09T15:23:58.929Z,100767.31
2022-10-09T15:26:27.749Z,100774.19
2022-10-09T15:28:55.311Z,100782.19
2022-10-09T15:31:31.890Z,100774.53
2022-10-09T15:34:01.674Z,100785.25
2022-10-09T15:36:30.720Z,100790.22
2022-10-09T15:39:03.199Z,100784.72
2022-10-09T15:41:33.305Z,100789.94
2022-10-09T15:44:03.646Z,100783.91
2022-10-09T15:46:31.605Z,100782.84
2022-10-09T15:48:59.309Z,100791.34
2022-10-09T15:51:28.212Z,100781.16
2022-10-09T15:53:56.154Z,100775.97
2022-10-09T15:56:25.609Z,100788.31
2022-10-09T15:58:54.512Z,100785.78
2022-10-09T16:01:22.833Z,100788.53
2022-10-09T16:03:51.044Z,100786.06
2022-10-09T16:06:23.935Z,100787.44
2022-10-09T16:08:55.414Z,100787.16
2022-10-09T16:11:26.029Z,100793.69
2022-10-09T16:13:56.527Z,100797.78
2022-10-09T16:16:27.479Z,100789.03
2022-10-09T16:18:57.345Z,100806.06
2022-10-09T16:21:28.146Z,100807.69
2022-10-09T16:23:59.126Z,100804.94
2022-10-09T16:26:29.058Z,100803.88
2022-10-09T16:28:56.681Z,100809.63
2022-10-09T16:31:31.223Z,100813.75
2022-10-09T16:33:59.546Z,100824.16
2022-10-09T16:36:27.399Z,100824.16
2022-10-09T16:38:55.402Z,100829.87
2022-10-09T16:41:24.273Z,100834.53
2022-10-09T16:43:56.424Z,100832.84
2022-10-09T16:46:26.893Z,100834.16
2022-10-09T16:48:56.081Z,100831.88
2022-10-09T16:51:26.445Z,100837.88
2022-10-09T16:53:56.396Z,100831.97
2022-10-09T16:56:27.256Z,100837.56
2022-10-09T16:58:57.459Z,100838.50
2022-10-09T17:01:26.558Z,100853.66
2022-10-09T17:03:59.020Z,100845.59
2022-10-09T17:06:27.936Z,100859.97
2022-10-09T17:08:58.339Z,100853.81
2022-10-09T17:11:28.978Z,100852.59
2022-10-09T17:13:57.631Z,100857.06
2022-10-09T17:16:28.150Z,100859.91
2022-10-09T17:18:55.830Z,100867.03
2022-10-09T17:21:28.139Z,100865.38
2022-10-09T17:24:01.319Z,100858.62
2022-10-09T17:26:30.177Z,100867.34
2022-10-09T17:29:01.385Z,100863.06
2022-10-09T17:31:29.646Z,100868.94
2022-10-09T17:34:03.891Z,100870.13
2022-10-09T17:36:35.024Z,100871.59
2022-10-09T17:39:02.839Z,100877.97
2022-10-09T17:41:31.025Z,100877.03
2022-10-09T17:43:59.196Z,100882.66
2022-10-09T17:46:28.714Z,100881.16
2022-10-09T17:48:57.012Z,100881.66
2022-10-09T17:51:31.162Z,100879.19
2022-10-09T17:54:03.266Z,100887.06
2022-10-09T17:56:32.865Z,100882.84
2022-10-09T17:59:01.380Z,100886.06
2022-10-09T18:01:30.456Z,100885.16
2022-10-09T18:03:58.887Z,100886.72
2022-10-09T18:06:27.298Z,100893.97
2022-10-09T18:08:58.326Z,100894.97
2022-10-09T18:11:27.710Z,100894.37
2022-10-09T18:13:56.731Z,100896.19
2022-10-09T18:16:35.879Z,100891.72
2022-10-09T18:19:12.506Z,100888.91
2022-10-09T18:21:41.941Z,100891.06
2022-10-09T18:24:09.912Z,100893.53
2022-10-09T18:26:37.503Z,100897.50
2022-10-09T18:29:07.816Z,100907.69
2022-10-09T18:31:36.707Z,100901.81
2022-10-09T18:34:04.351Z,100904.16
2022-10-09T18:36:33.710Z,100904.72
2022-10-09T18:39:18.004Z,100918.87
2022-10-09T18:41:46.442Z,100923.97
2022-10-09T18:44:20.571Z,100918.47
2022-10-09T18:46:55.295Z,100920.50
2022-10-09T18:49:25.758Z,100930.22
2022-10-09T18:51:56.259Z,100930.22
2022-10-09T18:54:25.638Z,100929.66
2022-10-09T18:56:54.218Z,100931.09
2022-10-09T18:59:23.304Z,100929.41
2022-10-09T19:01:50.951Z,100936.19
2022-10-09T19:04:19.045Z,100938.09
2022-10-09T19:06:47.669Z,100931.72
2022-10-09T19:09:18.582Z,100934.28
2022-10-09T19:11:48.502Z,100939.84
2022-10-09T19:14:18.514Z,100933.56
2022-10-09T19:16:46.442Z,100937.69
2022-10-09T19:19:14.508Z,100943.66
2022-10-09T19:21:43.947Z,100942.81
2022-10-09T19:24:12.938Z,100952.03
2022-10-09T19:26:41.643Z,100947.44
2022-10-09T19:29:09.439Z,100954.19
2022-10-09T19:31:37.344Z,100957.16
2022-10-09T19:34:05.910Z,100956.84
2022-10-09T19:36:36.578Z,100964.94
2022-10-09T19:39:06.235Z,100965.16
2022-10-09T19:41:34.122Z,100970.16
2022-10-09T19:44:06.525Z,100966.78
2022-10-09T19:46:33.998Z,100968.34
2022-10-09T19:49:04.585Z,100976.19
2022-10-09T19:51:32.396Z,100981.38
2022-10-09T19:54:02.585Z,100983.28
2022-10-09T19:56:33.073Z,100983.63
2022-10-09T19:59:02.743Z,100985.03
2022-10-09T20:01:31.432Z,100986.53
2022-10-09T20:04:01.597Z,100992.84
2022-10-09T20:06:29.270Z,100992.47
2022-10-09T20:08:57.331Z,100990.00
2022-10-09T20:11:27.546Z,100998.59
2022-10-09T20:13:56.594Z,100997.81
2022-10-09T20:16:29.688Z,101000.53
2022-10-09T20:18:57.466Z,101004.34
2022-10-09T20:21:25.075Z,101000.44
2022-10-09T20:23:53.737Z,101002.50
2022-10-09T20:26:22.198Z,101007.03
2022-10-09T20:28:52.389Z,101001.12
2022-10-09T20:31:25.757Z,101006.72
2022-10-09T20:33:55.005Z,101007.22
2022-10-09T20:36:22.472Z,101012.09
2022-10-09T20:38:50.179Z,101001.81
2022-10-09T20:41:17.794Z,101013.69
2022-10-09T20:43:45.296Z,101009.41
2022-10-09T20:46:15.183Z,101011.44
2022-10-09T20:48:43.530Z,101024.28
2022-10-09T20:51:11.145Z,101019.09
2022-10-09T20:53:38.631Z,101017.44
2022-10-09T20:56:10.468Z,101030.88
2022-10-09T20:58:38.216Z,101020.44
2022-10-09T21:01:07.858Z,101016.87
2022-10-09T21:03:37.303Z,101020.47
2022-10-09T21:06:11.333Z,101017.03
2022-10-09T21:08:41.720Z,101018.34
2022-10-09T21:11:12.656Z,101027.81
2022-10-09T21:13:41.692Z,101026.94
2022-10-09T21:16:12.332Z,101031.06
2022-10-09T21:18:40.303Z,101029.97
2022-10-09T21:21:13.303Z,101026.31
2022-10-09T21:23:41.701Z,101034.22
2022-10-09T21:26:17.538Z,101032.00
2022-10-09T21:28:45.916Z,101033.53
2022-10-09T21:31:18.526Z,101028.19
2022-10-09T21:33:46.871Z,101027.44
2022-10-09T21:36:19.205Z,101023.78
2022-10-09T21:38:47.518Z,101028.03
2022-10-09T21:41:15.043Z,101022.72
2022-10-09T21:43:42.514Z,101026.50
2022-10-09T21:46:10.052Z,101015.50
2022-10-09T21:48:37.589Z,101026.25
2022-10-09T21:51:05.167Z,101023.63
2022-10-09T21:53:32.887Z,101023.09
2022-10-09T21:56:00.382Z,101016.00
2022-10-09T21:58:29.981Z,101016.63
2022-10-09T22:01:02.372Z,101009.53
2022-10-09T22:03:32.506Z,101014.94
2022-10-09T22:06:00.789Z,101008.94
2022-10-09T22:08:28.569Z,101009.06
2022-10-09T22:10:58.188Z,101010.34
2022-10-09T22:13:28.083Z,101009.22
2022-10-09T22:15:55.574Z,101017.03
2022-10-09T22:18:25.444Z,101015.66
2022-10-09T22:20:54.046Z,101011.72
2022-10-09T22:23:22.207Z,101021.94
2022-10-09T22:26:01.414Z,101021.19
2022-10-09T22:28:29.071Z,101021.75
2022-10-09T22:31:09.934Z,101013.13
2022-10-09T22:33:37.559Z,101012.38
2022-10-09T22:36:17.202Z,101015.41
2022-10-09T22:38:45.670Z,101011.75
2022-10-09T22:41:18.782Z,101015.63
2022-10-09T22:43:48.650Z,101016.59
2022-10-09T22:46:19.327Z,101023.41
2022-10-09T22:48:46.992Z,101018.59
2022-10-09T22:51:17.694Z,101021.75
2022-10-09T22:53:46.080Z,101027.06
2022-10-09T22:56:19.851Z,101028.47
2022-10-09T22:58:48.454Z,101026.00
2022-10-09T23:01:30.110Z,101026.81
2022-10-09T23:04:03.500Z,101026.66
2022-10-09T23:06:31.494Z,101032.91
2022-10-09T23:09:00.230Z,101032.69
2022-10-09T23:11:30.182Z,101031.84
2022-10-09T23:14:01.231Z,101035.84
2022-10-09T23:16:30.310Z,101038.66
2022-10-09T23:19:06.122Z,101035.12
2022-10-09T23:21:34.519Z,101046.44
2022-10-09T23:24:02.059Z,101048.53
2022-10-09T23:26:31.825Z,101045.09
2022-10-09T23:29:02.001Z,101040.84
2022-10-09T23:31:32.699Z,101045.69
2022-10-09T23:34:00.622Z,101040.25
2022-10-09T23:36:30.053Z,101038.75
2022-10-09T23:38:58.601Z,101042.88
2022-10-09T23:41:27.815Z,101042.66
2022-10-09T23:43:58.665Z,101048.31
2022-10-09T23:46:29.249Z,101046.87
2022-10-09T23:48:57.616Z,101039.12
2022-10-09T23:51:27.182Z,101040.22
2022-10-09T23:53:55.903Z,101041.22
2022-10-09T23:56:24.672Z,101036.09
2022-10-09T23:58:55.702Z,101040.53
